sensor_id;sensor_type;location;lat;lon;timestamp;pressure;altitude;pressure_sealevel;temperature;humidity
49999;BME280;68071;45.062;7.356;2023-05-12T00:01:32;94653.72;;;9.09;100.00
49999;BME280;68071;45.062;7.356;2023-05-12T00:04:36;94653.03;;;9.01;100.00
49999;BME280;68071;45.062;7.356;2023-05-12T00:07:40;94660.69;;;9.21;100.00
49999;BME280;68071;45.062;7.356;2023-05-12T00:10:44;94653.75;;;9.44;100.00
49999;BME280;68071;45.062;7.356;2023-05-12T00:13:48;94660.38;;;9.50;100.00
49999;BME280;68071;45.062;7.356;2023-05-12T00:16:52;94661.81;;;8.89;100.00
49999;BME280;68071;45.062;7.356;2023-05-12T00:19:56;94661.06;;;8.85;100.00
49999;BME280;68071;45.062;7.356;2023-05-12T00:23:00;94661.34;;;8.98;100.00
49999;BME280;68071;45.062;7.356;2023-05-12T00:26:04;94663.56;;;9.14;100.00
49999;BME280;68071;45.062;7.356;2023-05-12T00:29:07;94661.63;;;8.69;100.00
49999;BME280;68071;45.062;7.356;2023-05-12T00:32:11;94661.50;;;8.34;100.00
49999;BME280;68071;45.062;7.356;2023-05-12T00:35:16;94660.22;;;8.46;100.00
49999;BME280;68071;45.062;7.356;2023-05-12T00:38:19;94659.44;;;8.49;100.00
49999;BME280;68071;45.062;7.356;2023-05-12T00:41:23;94666.13;;;8.44;100.00
49999;BME280;68071;45.062;7.356;2023-05-12T00:44:27;94662.19;;;8.91;100.00
49999;BME280;68071;45.062;7.356;2023-05-12T00:47:31;94665.13;;;9.11;100.00
49999;BME280;68071;45.062;7.356;2023-05-12T00:50:36;94665.50;;;8.75;100.00
49999;BME280;68071;45.062;7.356;2023-05-12T00:53:40;94669.06;;;8.72;100.00
49999;BME280;68071;45.062;7.356;2023-05-12T00:56:44;94654.78;;;8.39;100.00
49999;BME280;68071;45.062;7.356;2023-05-12T00:59:49;94667.84;;;8.24;100.00
49999;BME280;68071;45.062;7.356;2023-05-12T01:02:54;94663.19;;;8.21;100.00
49999;BME280;68071;45.062;7.356;2023-05-12T01:06:12;94668.66;;;8.24;100.00
49999;BME280;68071;45.062;7.356;2023-05-12T01:09:53;94665.88;;;8.28;100.00
49999;BME280;68071;45.062;7.356;2023-05-12T01:12:59;94671.38;;;8.31;100.00
49999;BME280;68071;45.062;7.356;2023-05-12T01:16:06;94678.69;;;8.45;100.00
49999;BME280;68071;45.062;7.356;2023-05-12T01:19:31;94680.44;;;8.77;100.00
49999;BME280;68071;45.062;7.356;2023-05-12T01:22:38;94675.00;;;8.14;100.00
49999;BME280;68071;45.062;7.356;2023-05-12T01:25:43;94684.09;;;8.11;100.00
49999;BME280;68071;45.062;7.356;2023-05-12T01:28:49;94681.31;;;8.14;100.00
49999;BME280;68071;45.062;7.356;2023-05-12T01:31:58;94679.34;;;8.11;100.00
49999;BME280;68071;45.062;7.356;2023-05-12T01:35:02;94679.69;;;8.17;100.00
49999;BME280;68071;45.062;7.356;2023-05-12T01:38:09;94679.03;;;8.02;100.00
49999;BME280;68071;45.062;7.356;2023-05-12T01:41:16;94674.00;;;7.86;100.00
49999;BME280;68071;45.062;7.356;2023-05-12T01:44:20;94680.28;;;7.86;100.00
49999;BME280;68071;45.062;7.356;2023-05-12T01:47:24;94674.09;;;7.71;100.00
49999;BME280;68071;45.062;7.356;2023-05-12T01:50:36;94675.28;;;7.67;100.00
49999;BME280;68071;45.062;7.356;2023-05-12T01:53:43;94675.09;;;7.99;100.00
49999;BME280;68071;45.062;7.356;2023-05-12T01:56:48;94675.22;;;8.38;100.00
49999;BME280;68071;45.062;7.356;2023-05-12T01:59:52;94679.97;;;8.37;100.00
49999;BME280;68071;45.062;7.356;2023-05-12T02:02:56;94673.16;;;8.00;100.00
49999;BME280;68071;45.062;7.356;2023-05-12T02:06:00;94675.63;;;7.76;100.00
49999;BME280;68071;45.062;7.356;2023-05-12T02:09:04;94661.66;;;7.45;100.00
49999;BME280;68071;45.062;7.356;2023-05-12T02:12:09;94661.69;;;7.38;100.00
49999;BME280;68071;45.062;7.356;2023-05-12T02:15:13;94667.19;;;7.34;100.00
49999;BME280;68071;45.062;7.356;2023-05-12T02:18:21;94665.28;;;7.13;100.00
49999;BME280;68071;45.062;7.356;2023-05-12T02:21:25;94658.59;;;7.21;100.00
49999;BME280;68071;45.062;7.356;2023-05-12T02:24:30;94660.09;;;7.37;100.00
49999;BME280;68071;45.062;7.356;2023-05-12T02:27:34;94660.44;;;7.50;100.00
49999;BME280;68071;45.062;7.356;2023-05-12T02:30:44;94652.31;;;7.24;100.00
49999;BME280;68071;45.062;7.356;2023-05-12T02:33:48;94655.06;;;7.24;100.00
49999;BME280;68071;45.062;7.356;2023-05-12T02:36:54;94656.97;;;7.35;100.00
49999;BME280;68071;45.062;7.356;2023-05-12T02:39:58;94645.94;;;7.38;100.00
49999;BME280;68071;45.062;7.356;2023-05-12T02:43:02;94654.69;;;7.22;100.00
49999;BME280;68071;45.062;7.356;2023-05-12T02:46:06;94652.19;;;7.53;100.00
49999;BME280;68071;45.062;7.356;2023-05-12T02:49:11;94661.41;;;7.92;100.00
49999;BME280;68071;45.062;7.356;2023-05-12T02:52:16;94660.00;;;7.59;100.00
49999;BME280;68071;45.062;7.356;2023-05-12T02:55:19;94658.84;;;7.60;100.00
49999;BME280;68071;45.062;7.356;2023-05-12T02:58:24;94662.06;;;7.40;100.00
49999;BME280;68071;45.062;7.356;2023-05-12T03:01:27;94658.63;;;7.18;100.00
49999;BME280;68071;45.062;7.356;2023-05-12T03:04:31;94652.69;;;7.26;100.00
49999;BME280;68071;45.062;7.356;2023-05-12T03:07:36;94659.78;;;7.28;100.00
49999;BME280;68071;45.062;7.356;2023-05-12T03:10:40;94653.75;;;7.54;100.00
49999;BME280;68071;45.062;7.356;2023-05-12T03:13:44;94656.50;;;7.54;100.00
49999;BME280;68071;45.062;7.356;2023-05-12T03:16:49;94661.28;;;7.43;100.00
49999;BME280;68071;45.062;7.356;2023-05-12T03:19:53;94646.25;;;7.59;100.00
49999;BME280;68071;45.062;7.356;2023-05-12T03:22:57;94655.28;;;7.63;100.00
49999;BME280;68071;45.062;7.356;2023-05-12T03:26:01;94651.22;;;7.82;100.00
49999;BME280;68071;45.062;7.356;2023-05-12T03:29:06;94646.41;;;8.00;100.00
49999;BME280;68071;45.062;7.356;2023-05-12T03:32:10;94645.22;;;8.01;100.00
49999;BME280;68071;45.062;7.356;2023-05-12T03:35:15;94643.25;;;8.02;100.00
49999;BME280;68071;45.062;7.356;2023-05-12T03:38:19;94644.06;;;7.99;100.00
49999;BME280;68071;45.062;7.356;2023-05-12T03:41:24;94644.22;;;8.30;100.00
49999;BME280;68071;45.062;7.356;2023-05-12T03:44:28;94644.25;;;8.23;100.00
49999;BME280;68071;45.062;7.356;2023-05-12T03:47:33;94644.41;;;8.05;100.00
49999;BME280;68071;45.062;7.356;2023-05-12T03:50:38;94645.72;;;7.82;100.00
49999;BME280;68071;45.062;7.356;2023-05-12T03:53:42;94653.16;;;7.88;100.00
49999;BME280;68071;45.062;7.356;2023-05-12T03:56:51;94647.53;;;8.07;100.00
49999;BME280;68071;45.062;7.356;2023-05-12T03:59:56;94648.31;;;8.11;100.00
49999;BME280;68071;45.062;7.356;2023-05-12T04:03:00;94650.34;;;7.99;100.00
49999;BME280;68071;45.062;7.356;2023-05-12T04:06:04;94644.06;;;7.99;100.00
49999;BME280;68071;45.062;7.356;2023-05-12T04:09:08;94644.59;;;7.79;100.00
49999;BME280;68071;45.062;7.356;2023-05-12T04:12:13;94639.81;;;7.87;100.00
49999;BME280;68071;45.062;7.356;2023-05-12T04:15:17;94641.00;;;7.86;100.00
49999;BME280;68071;45.062;7.356;2023-05-12T04:18:22;94651.97;;;7.93;100.00
49999;BME280;68071;45.062;7.356;2023-05-12T04:21:58;94653.47;;;8.01;100.00
49999;BME280;68071;45.062;7.356;2023-05-12T04:25:02;94652.59;;;8.15;100.00
49999;BME280;68071;45.062;7.356;2023-05-12T04:28:07;94656.34;;;8.40;100.00
49999;BME280;68071;45.062;7.356;2023-05-12T04:31:18;94650.41;;;8.45;100.00
49999;BME280;68071;45.062;7.356;2023-05-12T04:34:22;94650.72;;;8.58;100.00
49999;BME280;68071;45.062;7.356;2023-05-12T04:37:26;94640.31;;;8.73;100.00
49999;BME280;68071;45.062;7.356;2023-05-12T04:40:31;94655.84;;;8.52;100.00
49999;BME280;68071;45.062;7.356;2023-05-12T04:43:35;94661.16;;;8.77;100.00
49999;BME280;68071;45.062;7.356;2023-05-12T04:46:40;94658.91;;;9.03;100.00
49999;BME280;68071;45.062;7.356;2023-05-12T04:49:44;94670.66;;;9.11;100.00
49999;BME280;68071;45.062;7.356;2023-05-12T04:52:51;94677.72;;;9.16;100.00
49999;BME280;68071;45.062;7.356;2023-05-12T04:55:55;94670.25;;;9.13;100.00
49999;BME280;68071;45.062;7.356;2023-05-12T04:58:59;94681.72;;;9.07;100.00
49999;BME280;68071;45.062;7.356;2023-05-12T05:02:04;94691.59;;;9.39;100.00
49999;BME280;68071;45.062;7.356;2023-05-12T05:05:08;94687.38;;;9.31;100.00
49999;BME280;68071;45.062;7.356;2023-05-12T05:08:13;94694.63;;;9.52;100.00
49999;BME280;68071;45.062;7.356;2023-05-12T05:11:17;94690.25;;;9.55;100.00
49999;BME280;68071;45.062;7.356;2023-05-12T05:14:23;94690.53;;;9.30;100.00
49999;BME280;68071;45.062;7.356;2023-05-12T05:17:27;94693.38;;;9.57;100.00
49999;BME280;68071;45.062;7.356;2023-05-12T05:20:31;94708.41;;;9.52;100.00
49999;BME280;68071;45.062;7.356;2023-05-12T05:23:37;94700.63;;;9.78;100.00
49999;BME280;68071;45.062;7.356;2023-05-12T05:26:43;94707.59;;;9.87;100.00
49999;BME280;68071;45.062;7.356;2023-05-12T05:29:48;94704.47;;;9.84;100.00
49999;BME280;68071;45.062;7.356;2023-05-12T05:32:52;94696.06;;;9.64;100.00
49999;BME280;68071;45.062;7.356;2023-05-12T05:35:56;94702.94;;;9.49;100.00
49999;BME280;68071;45.062;7.356;2023-05-12T05:39:01;94702.72;;;9.67;100.00
49999;BME280;68071;45.062;7.356;2023-05-12T05:42:05;94702.56;;;9.81;100.00
49999;BME280;68071;45.062;7.356;2023-05-12T05:45:09;94708.41;;;10.14;100.00
49999;BME280;68071;45.062;7.356;2023-05-12T05:48:15;94714.63;;;10.50;100.00
49999;BME280;68071;45.062;7.356;2023-05-12T05:51:19;94712.91;;;10.59;100.00
49999;BME280;68071;45.062;7.356;2023-05-12T05:54:23;94716.66;;;10.46;100.00
49999;BME280;68071;45.062;7.356;2023-05-12T05:57:28;94709.69;;;10.37;100.00
49999;BME280;68071;45.062;7.356;2023-05-12T06:00:34;94710.66;;;10.23;100.00
49999;BME280;68071;45.062;7.356;2023-05-12T06:03:38;94707.06;;;10.26;100.00
49999;BME280;68071;45.062;7.356;2023-05-12T06:06:43;94711.75;;;10.29;100.00
49999;BME280;68071;45.062;7.356;2023-05-12T06:09:46;94710.81;;;10.67;100.00
49999;BME280;68071;45.062;7.356;2023-05-12T06:12:50;94710.78;;;10.43;100.00
49999;BME280;68071;45.062;7.356;2023-05-12T06:15:54;94712.09;;;10.86;100.00
49999;BME280;68071;45.062;7.356;2023-05-12T06:18:58;94707.53;;;11.20;100.00
49999;BME280;68071;45.062;7.356;2023-05-12T06:22:01;94712.09;;;10.86;100.00
49999;BME280;68071;45.062;7.356;2023-05-12T06:25:06;94697.03;;;10.87;100.00
49999;BME280;68071;45.062;7.356;2023-05-12T06:28:10;94710.38;;;11.16;100.00
49999;BME280;68071;45.062;7.356;2023-05-12T06:31:14;94711.19;;;11.37;100.00
49999;BME280;68071;45.062;7.356;2023-05-12T06:34:18;94704.53;;;11.55;100.00
49999;BME280;68071;45.062;7.356;2023-05-12T06:37:22;94704.81;;;11.60;100.00
49999;BME280;68071;45.062;7.356;2023-05-12T06:40:26;94707.59;;;11.80;100.00
49999;BME280;68071;45.062;7.356;2023-05-12T06:43:30;94696.84;;;11.83;100.00
49999;BME280;68071;45.062;7.356;2023-05-12T06:46:34;94703.75;;;11.74;100.00
49999;BME280;68071;45.062;7.356;2023-05-12T06:49:38;94702.66;;;12.08;100.00
49999;BME280;68071;45.062;7.356;2023-05-12T06:52:42;94707.84;;;12.27;97.18
49999;BME280;68071;45.062;7.356;2023-05-12T06:55:46;94708.25;;;12.25;97.03
49999;BME280;68071;45.062;7.356;2023-05-12T06:58:50;94710.00;;;11.99;99.14
49999;BME280;68071;45.062;7.356;2023-05-12T07:01:55;94711.81;;;12.25;95.31
49999;BME280;68071;45.062;7.356;2023-05-12T07:04:58;94709.63;;;12.17;98.55
49999;BME280;68071;45.062;7.356;2023-05-12T07:08:02;94704.13;;;12.33;96.97
49999;BME280;68071;45.062;7.356;2023-05-12T07:11:07;94709.69;;;12.50;96.56
49999;BME280;68071;45.062;7.356;2023-05-12T07:14:11;94709.81;;;12.43;98.88
49999;BME280;68071;45.062;7.356;2023-05-12T07:17:15;94714.59;;;12.42;99.32
49999;BME280;68071;45.062;7.356;2023-05-12T07:20:19;94715.69;;;12.65;97.94
49999;BME280;68071;45.062;7.356;2023-05-12T07:23:35;94714.72;;;12.55;97.39
49999;BME280;68071;45.062;7.356;2023-05-12T07:26:40;94697.72;;;12.00;100.00
49999;BME280;68071;45.062;7.356;2023-05-12T07:29:50;94700.66;;;12.46;99.40
49999;BME280;68071;45.062;7.356;2023-05-12T07:32:54;94695.81;;;12.83;97.36
49999;BME280;68071;45.062;7.356;2023-05-12T07:35:57;94697.47;;;12.64;100.00
49999;BME280;68071;45.062;7.356;2023-05-12T07:39:01;94699.44;;;12.96;99.30
49999;BME280;68071;45.062;7.356;2023-05-12T07:42:05;94700.75;;;13.38;91.77
49999;BME280;68071;45.062;7.356;2023-05-12T07:45:10;94703.00;;;13.59;88.54
49999;BME280;68071;45.062;7.356;2023-05-12T07:48:13;94704.06;;;13.49;91.13
49999;BME280;68071;45.062;7.356;2023-05-12T07:51:17;94712.34;;;12.86;93.26
49999;BME280;68071;45.062;7.356;2023-05-12T07:54:21;94719.41;;;12.91;94.15
49999;BME280;68071;45.062;7.356;2023-05-12T07:57:25;94718.34;;;13.01;94.87
49999;BME280;68071;45.062;7.356;2023-05-12T08:00:29;94709.06;;;12.59;97.39
49999;BME280;68071;45.062;7.356;2023-05-12T08:03:34;94714.78;;;13.18;91.84
49999;BME280;68071;45.062;7.356;2023-05-12T08:06:38;94719.78;;;12.40;97.88
49999;BME280;68071;45.062;7.356;2023-05-12T08:09:42;94728.09;;;12.03;100.00
49999;BME280;68071;45.062;7.356;2023-05-12T08:12:46;94723.03;;;12.18;97.30
49999;BME280;68071;45.062;7.356;2023-05-12T08:15:50;94717.50;;;12.18;96.07
49999;BME280;68071;45.062;7.356;2023-05-12T08:18:54;94721.88;;;11.99;100.00
49999;BME280;68071;45.062;7.356;2023-05-12T08:21:58;94728.09;;;11.63;100.00
49999;BME280;68071;45.062;7.356;2023-05-12T08:25:03;94726.66;;;11.75;100.00
49999;BME280;68071;45.062;7.356;2023-05-12T08:28:08;94729.72;;;11.60;100.00
49999;BME280;68071;45.062;7.356;2023-05-12T08:31:11;94733.63;;;11.43;100.00
49999;BME280;68071;45.062;7.356;2023-05-12T08:34:15;94738.88;;;11.37;100.00
49999;BME280;68071;45.062;7.356;2023-05-12T08:37:19;94737.59;;;11.42;100.00
49999;BME280;68071;45.062;7.356;2023-05-12T08:40:24;94746.38;;;11.37;100.00
49999;BME280;68071;45.062;7.356;2023-05-12T08:43:43;94744.97;;;11.48;100.00
49999;BME280;68071;45.062;7.356;2023-05-12T08:46:47;94743.63;;;11.57;100.00
49999;BME280;68071;45.062;7.356;2023-05-12T08:50:02;94737.34;;;11.76;100.00
49999;BME280;68071;45.062;7.356;2023-05-12T08:53:12;94743.41;;;12.28;98.85
49999;BME280;68071;45.062;7.356;2023-05-12T08:56:20;94735.97;;;11.85;98.71
49999;BME280;68071;45.062;7.356;2023-05-12T08:59:25;94736.66;;;11.28;100.00
49999;BME280;68071;45.062;7.356;2023-05-12T09:02:30;94741.94;;;12.23;100.00
49999;BME280;68071;45.062;7.356;2023-05-12T09:05:35;94736.44;;;12.56;99.92
49999;BME280;68071;45.062;7.356;2023-05-12T09:08:39;94729.53;;;12.98;96.16
49999;BME280;68071;45.062;7.356;2023-05-12T09:11:44;94738.09;;;13.20;93.54
49999;BME280;68071;45.062;7.356;2023-05-12T09:14:55;94732.50;;;13.53;86.91
49999;BME280;68071;45.062;7.356;2023-05-12T09:18:02;94738.19;;;13.92;84.86
49999;BME280;68071;45.062;7.356;2023-05-12T09:21:06;94730.50;;;13.83;84.56
49999;BME280;68071;45.062;7.356;2023-05-12T09:24:11;94731.00;;;13.65;78.95
49999;BME280;68071;45.062;7.356;2023-05-12T09:27:23;94728.22;;;13.02;90.05
49999;BME280;68071;45.062;7.356;2023-05-12T09:30:29;94721.84;;;13.35;84.30
49999;BME280;68071;45.062;7.356;2023-05-12T09:33:34;94725.13;;;13.76;85.73
49999;BME280;68071;45.062;7.356;2023-05-12T09:36:39;94723.16;;;13.76;83.71
49999;BME280;68071;45.062;7.356;2023-05-12T09:39:43;94718.13;;;13.71;80.12
49999;BME280;68071;45.062;7.356;2023-05-12T09:42:47;94715.25;;;14.17;79.54
49999;BME280;68071;45.062;7.356;2023-05-12T09:45:50;94717.06;;;14.63;75.38
49999;BME280;68071;45.062;7.356;2023-05-12T09:48:56;94714.69;;;14.48;70.80
49999;BME280;68071;45.062;7.356;2023-05-12T09:52:01;94709.34;;;13.73;81.82
49999;BME280;68071;45.062;7.356;2023-05-12T09:55:08;94716.66;;;13.37;93.02
49999;BME280;68071;45.062;7.356;2023-05-12T09:58:18;94717.81;;;14.37;80.85
49999;BME280;68071;45.062;7.356;2023-05-12T10:01:23;94716.06;;;14.82;78.49
49999;BME280;68071;45.062;7.356;2023-05-12T10:05:01;94714.91;;;13.73;88.37
49999;BME280;68071;45.062;7.356;2023-05-12T10:13:21;94713.03;;;13.70;89.22
49999;BME280;68071;45.062;7.356;2023-05-12T10:16:27;94720.00;;;13.61;89.80
49999;BME280;68071;45.062;7.356;2023-05-12T10:19:31;94713.66;;;14.03;83.49
49999;BME280;68071;45.062;7.356;2023-05-12T10:22:39;94711.41;;;13.85;88.67
49999;BME280;68071;45.062;7.356;2023-05-12T10:25:43;94706.31;;;13.38;87.21
49999;BME280;68071;45.062;7.356;2023-05-12T10:28:48;94708.41;;;13.50;91.39
49999;BME280;68071;45.062;7.356;2023-05-12T10:32:26;94708.81;;;13.78;90.15
49999;BME280;68071;45.062;7.356;2023-05-12T10:35:31;94718.78;;;14.05;83.22
49999;BME280;68071;45.062;7.356;2023-05-12T10:38:35;94722.84;;;13.87;82.92
49999;BME280;68071;45.062;7.356;2023-05-12T10:41:40;94732.69;;;12.30;95.09
49999;BME280;68071;45.062;7.356;2023-05-12T10:44:50;94748.81;;;11.34;100.00
49999;BME280;68071;45.062;7.356;2023-05-12T10:48:04;94770.97;;;10.83;100.00
49999;BME280;68071;45.062;7.356;2023-05-12T10:51:09;94776.84;;;9.65;100.00
49999;BME280;68071;45.062;7.356;2023-05-12T10:54:23;94778.78;;;9.68;100.00
49999;BME280;68071;45.062;7.356;2023-05-12T10:57:28;94797.50;;;9.53;100.00
49999;BME280;68071;45.062;7.356;2023-05-12T11:00:42;94803.78;;;9.12;100.00
49999;BME280;68071;45.062;7.356;2023-05-12T11:03:47;94802.97;;;9.15;100.00
49999;BME280;68071;45.062;7.356;2023-05-12T11:06:57;94805.63;;;8.76;100.00
49999;BME280;68071;45.062;7.356;2023-05-12T11:10:05;94813.38;;;8.92;100.00
49999;BME280;68071;45.062;7.356;2023-05-12T11:13:09;94816.41;;;9.05;100.00
49999;BME280;68071;45.062;7.356;2023-05-12T11:16:13;94816.66;;;9.22;100.00
49999;BME280;68071;45.062;7.356;2023-05-12T11:19:17;94819.69;;;9.77;100.00
49999;BME280;68071;45.062;7.356;2023-05-12T11:22:22;94813.47;;;9.27;100.00
49999;BME280;68071;45.062;7.356;2023-05-12T11:25:26;94809.22;;;8.70;100.00
49999;BME280;68071;45.062;7.356;2023-05-12T11:28:40;94820.66;;;8.61;100.00
49999;BME280;68071;45.062;7.356;2023-05-12T11:31:50;94829.38;;;8.56;100.00
49999;BME280;68071;45.062;7.356;2023-05-12T11:34:54;94829.00;;;8.54;100.00
49999;BME280;68071;45.062;7.356;2023-05-12T11:37:59;94832.03;;;9.23;100.00
49999;BME280;68071;45.062;7.356;2023-05-12T11:41:05;94834.38;;;8.75;100.00
49999;BME280;68071;45.062;7.356;2023-05-12T11:44:23;94832.50;;;8.58;100.00
49999;BME280;68071;45.062;7.356;2023-05-12T11:47:27;94841.56;;;8.55;100.00
49999;BME280;68071;45.062;7.356;2023-05-12T11:50:32;94838.97;;;8.93;100.00
49999;BME280;68071;45.062;7.356;2023-05-12T11:53:39;94833.03;;;8.98;100.00
49999;BME280;68071;45.062;7.356;2023-05-12T11:56:53;94836.38;;;8.64;100.00
49999;BME280;68071;45.062;7.356;2023-05-12T12:00:00;94829.03;;;8.43;100.00
49999;BME280;68071;45.062;7.356;2023-05-12T12:03:09;94837.22;;;8.57;100.00
49999;BME280;68071;45.062;7.356;2023-05-12T12:06:15;94835.28;;;8.47;100.00
49999;BME280;68071;45.062;7.356;2023-05-12T12:09:29;94836.88;;;8.44;100.00
49999;BME280;68071;45.062;7.356;2023-05-12T12:12:33;94827.28;;;8.74;100.00
49999;BME280;68071;45.062;7.356;2023-05-12T12:15:37;94826.34;;;8.96;100.00
49999;BME280;68071;45.062;7.356;2023-05-12T12:18:41;94823.19;;;8.97;100.00
49999;BME280;68071;45.062;7.356;2023-05-12T12:21:45;94824.31;;;9.03;100.00
49999;BME280;68071;45.062;7.356;2023-05-12T12:24:49;94820.13;;;8.81;100.00
49999;BME280;68071;45.062;7.356;2023-05-12T12:27:52;94819.69;;;8.93;100.00
49999;BME280;68071;45.062;7.356;2023-05-12T12:30:57;94818.50;;;8.94;100.00
49999;BME280;68071;45.062;7.356;2023-05-12T12:34:02;94813.53;;;9.23;100.00
49999;BME280;68071;45.062;7.356;2023-05-12T12:37:10;94807.00;;;8.99;100.00
49999;BME280;68071;45.062;7.356;2023-05-12T12:40:13;94811.69;;;9.06;100.00
49999;BME280;68071;45.062;7.356;2023-05-12T12:43:17;94799.75;;;9.20;100.00
49999;BME280;68071;45.062;7.356;2023-05-12T12:46:21;94801.56;;;9.37;100.00
49999;BME280;68071;45.062;7.356;2023-05-12T12:49:25;94803.88;;;9.43;100.00
49999;BME280;68071;45.062;7.356;2023-05-12T12:52:29;94797.78;;;9.97;100.00
49999;BME280;68071;45.062;7.356;2023-05-12T12:55:34;94804.97;;;10.22;100.00
49999;BME280;68071;45.062;7.356;2023-05-12T12:58:38;94809.34;;;10.19;100.00
49999;BME280;68071;45.062;7.356;2023-05-12T13:01:42;94816.03;;;10.53;100.00
49999;BME280;68071;45.062;7.356;2023-05-12T13:04:46;94806.81;;;10.63;100.00
49999;BME280;68071;45.062;7.356;2023-05-12T13:07:50;94811.63;;;10.59;100.00
49999;BME280;68071;45.062;7.356;2023-05-12T13:10:54;94810.88;;;10.82;100.00
49999;BME280;68071;45.062;7.356;2023-05-12T13:13:58;94817.81;;;10.94;100.00
49999;BME280;68071;45.062;7.356;2023-05-12T13:22:36;94815.19;;;10.25;100.00
49999;BME280;68071;45.062;7.356;2023-05-12T13:25:40;94811.53;;;10.32;100.00
49999;BME280;68071;45.062;7.356;2023-05-12T13:28:47;94809.03;;;10.44;100.00
49999;BME280;68071;45.062;7.356;2023-05-12T13:31:52;94808.22;;;10.75;100.00
49999;BME280;68071;45.062;7.356;2023-05-12T13:34:57;94806.56;;;10.81;100.00
49999;BME280;68071;45.062;7.356;2023-05-12T13:38:01;94805.34;;;10.82;100.00
49999;BME280;68071;45.062;7.356;2023-05-12T13:41:06;94814.41;;;10.83;100.00
49999;BME280;68071;45.062;7.356;2023-05-12T13:44:09;94808.94;;;10.79;100.00
49999;BME280;68071;45.062;7.356;2023-05-12T13:47:14;94819.03;;;11.17;100.00
49999;BME280;68071;45.062;7.356;2023-05-12T13:50:19;94807.13;;;11.44;100.00
49999;BME280;68071;45.062;7.356;2023-05-12T13:53:23;94808.28;;;11.23;100.00
49999;BME280;68071;45.062;7.356;2023-05-12T13:56:26;94812.66;;;11.68;100.00
49999;BME280;68071;45.062;7.356;2023-05-12T13:59:31;94809.91;;;11.64;100.00
49999;BME280;68071;45.062;7.356;2023-05-12T14:02:35;94804.44;;;12.04;100.00
49999;BME280;68071;45.062;7.356;2023-05-12T14:05:39;94800.03;;;12.27;100.00
49999;BME280;68071;45.062;7.356;2023-05-12T14:08:42;94786.47;;;12.69;96.95
49999;BME280;68071;45.062;7.356;2023-05-12T14:11:46;94790.38;;;12.35;95.10
49999;BME280;68071;45.062;7.356;2023-05-12T14:14:50;94788.50;;;12.49;96.29
49999;BME280;68071;45.062;7.356;2023-05-12T14:17:54;94784.28;;;12.61;97.64
49999;BME280;68071;45.062;7.356;2023-05-12T14:20:58;94791.75;;;12.64;95.59
49999;BME280;68071;45.062;7.356;2023-05-12T14:24:03;94787.31;;;12.66;94.79
49999;BME280;68071;45.062;7.356;2023-05-12T14:27:08;94791.44;;;12.58;97.14
49999;BME280;68071;45.062;7.356;2023-05-12T14:30:12;94789.63;;;12.51;99.80
49999;BME280;68071;45.062;7.356;2023-05-12T14:33:16;94785.25;;;12.34;100.00
49999;BME280;68071;45.062;7.356;2023-05-12T14:36:20;94786.56;;;12.46;100.00
49999;BME280;68071;45.062;7.356;2023-05-12T14:39:24;94782.13;;;12.32;100.00
49999;BME280;68071;45.062;7.356;2023-05-12T14:42:28;94787.97;;;12.37;100.00
49999;BME280;68071;45.062;7.356;2023-05-12T14:45:33;94793.72;;;12.63;100.00
49999;BME280;68071;45.062;7.356;2023-05-12T14:48:37;94792.19;;;12.79;100.00
49999;BME280;68071;45.062;7.356;2023-05-12T14:51:41;94790.31;;;12.55;100.00
49999;BME280;68071;45.062;7.356;2023-05-12T14:54:46;94792.53;;;12.81;98.88
49999;BME280;68071;45.062;7.356;2023-05-12T14:57:50;94796.22;;;13.11;96.24
49999;BME280;68071;45.062;7.356;2023-05-12T15:00:54;94787.19;;;13.07;100.00
49999;BME280;68071;45.062;7.356;2023-05-12T15:03:58;94791.34;;;13.31;93.46
49999;BME280;68071;45.062;7.356;2023-05-12T15:07:01;94796.09;;;12.45;98.99
49999;BME280;68071;45.062;7.356;2023-05-12T15:10:08;94795.47;;;12.74;97.15
49999;BME280;68071;45.062;7.356;2023-05-12T15:13:12;94792.00;;;12.69;100.00
49999;BME280;68071;45.062;7.356;2023-05-12T15:16:18;94795.06;;;13.08;98.62
49999;BME280;68071;45.062;7.356;2023-05-12T15:19:22;94800.69;;;12.88;100.00
49999;BME280;68071;45.062;7.356;2023-05-12T15:22:26;94801.38;;;12.76;100.00
49999;BME280;68071;45.062;7.356;2023-05-12T15:25:37;94798.31;;;12.70;100.00
49999;BME280;68071;45.062;7.356;2023-05-12T15:28:41;94803.63;;;12.81;100.00
49999;BME280;68071;45.062;7.356;2023-05-12T15:31:45;94803.72;;;12.77;100.00
49999;BME280;68071;45.062;7.356;2023-05-12T15:34:51;94797.41;;;12.40;100.00
49999;BME280;68071;45.062;7.356;2023-05-12T15:37:55;94795.78;;;12.22;100.00
49999;BME280;68071;45.062;7.356;2023-05-12T15:40:59;94792.72;;;13.07;100.00
49999;BME280;68071;45.062;7.356;2023-05-12T15:44:03;94786.16;;;13.50;100.00
49999;BME280;68071;45.062;7.356;2023-05-12T15:47:07;94793.22;;;13.68;100.00
49999;BME280;68071;45.062;7.356;2023-05-12T15:50:11;94790.06;;;13.82;100.00
49999;BME280;68071;45.062;7.356;2023-05-12T15:53:15;94785.06;;;14.19;97.68
49999;BME280;68071;45.062;7.356;2023-05-12T15:56:19;94791.59;;;13.54;100.00
49999;BME280;68071;45.062;7.356;2023-05-12T15:59:24;94789.59;;;14.13;92.03
49999;BME280;68071;45.062;7.356;2023-05-12T16:02:29;94794.81;;;13.82;100.00
49999;BME280;68071;45.062;7.356;2023-05-12T16:05:33;94801.97;;;13.66;100.00
49999;BME280;68071;45.062;7.356;2023-05-12T16:08:40;94800.28;;;13.85;97.26
49999;BME280;68071;45.062;7.356;2023-05-12T16:11:44;94801.84;;;13.24;100.00
49999;BME280;68071;45.062;7.356;2023-05-12T16:14:51;94796.88;;;13.65;99.71
49999;BME280;68071;45.062;7.356;2023-05-12T16:17:56;94798.34;;;13.69;96.65
49999;BME280;68071;45.062;7.356;2023-05-12T16:21:00;94813.09;;;12.83;100.00
49999;BME280;68071;45.062;7.356;2023-05-12T16:24:04;94814.84;;;11.96;100.00
49999;BME280;68071;45.062;7.356;2023-05-12T16:27:09;94821.00;;;11.64;100.00
49999;BME280;68071;45.062;7.356;2023-05-12T16:30:13;94817.97;;;11.34;100.00